Pala Temecula (TM1) Station Data

Red Flag Warning: No
Fire Weather Zone: 250
SDGE Region: North East
Lat/Lon: 33.419/-117.082

Observations

Time Wind Speed/Gust Temp(F) RH Fuel Moist Fuel Temp(F) Dewpt(F) Tmax(F) Tmin(F) Accum Precip 10-min Precip SL Press(mb)
2/27 11:40pm 196 5 G 10 50° 100% - - 50° 53.5° 42.3° - - 934.0
2/27 11:20pm 166 3 G 6 50° 100% - - 50° 53.5° 42.3° - - 934.0
2/27 11:10pm 168 3 G 8 50° 100% - - 50° 53.5° 42.3° - - 934.0
2/27 11:00pm 175 4 G 7 50° 100% - - 50° 53.5° 42.3° - - 934.0
2/27 10:50pm 183 4 G 8 50° 100% - - 50° 53.5° 42.3° - - 934.0
2/27 10:40pm 188 3 G 7 50° 100% - - 50° 53.5° 42.3° - - 934.0
2/27 10:30pm 179 5 G 10 50° 100% - - 50° 53.5° 42.3° - - 934.0
2/27 10:20pm 150 4 G 7 50° 100% - - 50° 53.5° 42.3° - - 934.0
2/27 10:10pm 178 3 G 7 50° 100% - - 50° 53.5° 42.3° - - 934.0
2/27 10:00pm 175 3 G 6 50° 100% - - 50° 53.5° 42.3° - - 934.0
2/27 9:50pm 151 5 G 8 50° 100% - - 50° 53.5° 42.3° - - 934.0
2/27 9:40pm 151 6 G 9 50° 100% - - 50° 53.5° 42.3° - - 934.0
2/27 9:30pm 149 5 G 8 50° 100% - - 50° 53.5° 42.3° - - 934.0
2/27 9:20pm 159 3 G 6 50° 100% - - 50° 53.5° 42.3° - - 935.0
2/27 9:10pm 197 3 G 6 50° 100% - - 50° 53.5° 42.3° - - 935.0
2/27 9:00pm 198 4 G 7 50° 100% - - 50° 53.5° 42.3° - - 935.0
2/27 8:50pm 201 4 G 7 50° 100% - - 50° 53.5° 42.3° - - 935.0
2/27 8:40pm 194 3 G 7 50° 100% - - 50° 53.5° 42.3° - - 935.0
2/27 8:30pm 198 4 G 6 51° 100% - - 51° 53.5° 42.3° - - 935.0
2/27 8:20pm 180 2 G 6 51° 100% - - 51° 53.5° 42.3° - - 935.0
2/27 8:10pm 174 3 G 6 51° 100% - - 51° 53.5° 42.3° - - 935.0
2/27 8:00pm 160 5 G 9 51° 100% - - 51° 53.5° 42.3° - - 935.0
2/27 7:50pm 147 6 G 10 51° 100% - - 51° 53.5° 42.3° - - 935.0
2/27 7:40pm 158 6 G 11 51° 100% - - 51° 53.5° 42.3° - - 935.0
2/27 7:30pm 173 5 G 12 51° 100% - - 51° 53.5° 42.3° - - 935.0
2/27 7:20pm 178 5 G 10 51° 100% - - 51° 53.5° 42.3° - - 935.0
2/27 7:10pm 165 5 G 10 51° 100% - - 51° 53.5° 42.3° - - 935.0
2/27 7:00pm 170 5 G 10 51° 100% - - 51° 53.5° 42.3° - - 936.0
2/27 6:50pm 167 6 G 12 51° 100% - - 51° 53.5° 42.3° - - 936.0
2/27 6:40pm 191 8 G 15 51° 100% - - 51° 53.5° 42.3° - - 936.0
2/27 6:30pm 190 7 G 15 51° 100% - - 51° 53.5° 42.3° - - 936.0
2/27 6:20pm 181 7 G 14 52° 100% - - 52° 53.5° 42.3° - - 936.0
2/27 6:10pm 182 5 G 9 52° 100% - - 52° 53.5° 42.3° - - 936.0
2/27 6:00pm 174 6 G 15 52° 100% - - 52° 53.5° 42.3° - - 936.0
2/27 5:50pm 181 8 G 22 52° 100% - - 52° 53.5° 42.3° - - 936.0
2/27 5:40pm 175 6 G 12 52° 100% - - 52° 53.5° 42.3° - - 935.0
2/27 5:30pm 201 10 G 22 52° 100% - - 52° 53.5° 42.3° - - 935.0
2/27 5:20pm 188 8 G 14 52° 100% - - 52° 53.5° 42.3° - - 935.0
2/27 5:10pm 178 8 G 19 52° 100% - - 52° 53.5° 42.3° - - 934.0
2/27 5:00pm 182 7 G 14 52° 100% - - 52° 53.5° 42.3° - - 934.0
2/27 4:50pm 175 8 G 16 52° 100% - - 52° 53.5° 42.3° - - 934.0
2/27 4:40pm 196 9 G 20 52° 100% - - 52° 53.5° 42.3° - - 934.0
2/27 4:30pm 185 9 G 17 52° 100% - - 52° 53.5° 42.3° - - 934.0
2/27 4:20pm 186 9 G 18 52° 100% - - 52° 53.5° 42.3° - - 934.0
2/27 4:10pm 191 8 G 20 52° 100% - - 52° 53.5° 42.3° - - 933.0
2/27 4:00pm 179 7 G 17 52° 100% - - 52° 53.5° 42.3° - - 933.0
2/27 3:50pm 188 8 G 17 52° 100% - - 52° 53.5° 42.3° - - 933.0
2/27 3:40pm 199 9 G 21 52° 100% - - 52° 53.5° 42.3° - - 933.0
2/27 3:30pm 183 8 G 18 52° 100% - - 52° 53.5° 42.3° - - 933.0
2/27 3:20pm 182 8 G 18 52° 100% - - 52° 53.5° 42.3° - - 933.0
2/27 3:10pm 198 12 G 26 53° 100% - - 53° 53.5° 42.3° - - 933.0
2/27 3:00pm 196 10 G 20 53° 100% - - 53° 53.5° 42.3° - - 933.0
2/27 2:50pm 194 8 G 19 53° 100% - - 53° 53.5° 42.3° - - 933.0
2/27 2:40pm 202 10 G 18 53° 100% - - 53° 53.5° 42.3° - - 932.0
2/27 2:30pm 195 9 G 20 53° 100% - - 53° 53.5° 42.3° - - 932.0
2/27 2:20pm 184 7 G 13 53° 100% - - 53° 53.5° 42.3° - - 932.0
2/27 2:10pm 181 8 G 18 53° 100% - - 53° 53.5° 42.3° - - 932.0
2/27 2:00pm 180 8 G 17 53° 100% - - 53° 53.5° 42.3° - - 932.0
2/27 1:50pm 177 8 G 18 53° 100% - - 53° 53.5° 42.3° - - 932.0
2/27 1:40pm 180 8 G 16 53° 100% - - 53° 53.5° 42.3° - - 931.0
2/27 1:30pm 188 8 G 16 53° 100% - - 53° 53.3° 42.3° - - 931.0
2/27 1:20pm 170 7 G 16 52° 100% - - 52° 52.8° 42.3° - - 931.0
2/27 1:10pm 160 7 G 12 52° 100% - - 52° 52.8° 42.3° - - 931.0
2/27 1:00pm 150 9 G 17 52° 100% - - 52° 52.8° 42.3° - - 931.0
2/27 12:40pm 154 8 G 14 52° 100% - - 52° 52.8° 42.3° - - 931.0
2/27 12:30pm 151 8 G 15 52° 100% - - 52° 52.8° 42.3° - - 931.0
2/27 12:20pm 154 8 G 17 52° 100% - - 52° 52.8° 42.3° - - 931.0
2/27 12:10pm 163 7 G 14 52° 100% - - 53° 52.8° 42.3° - - 930.0
2/27 12:00pm 181 6 G 11 53° 100% - - 53° 52.8° 42.3° - - 930.0
2/27 11:50am 159 8 G 16 53° 100% - - 53° 52.8° 42.3° - - 930.0
2/27 11:40am 164 7 G 17 52° 100% - - 52° 52.7° 42.3° - - 930.0
2/27 11:30am 170 6 G 13 52° 100% - - 52° 52.2° 42.3° - - 929.0
2/27 11:20am 190 5 G 16 52° 100% - - 52° 52° 42.3° - - 929.0
2/27 11:10am 190 5 G 11 51° 100% - - 51° 52° 42.3° - - 929.0
2/27 11:00am 191 7 G 12 52° 100% - - 52° 52° 42.3° - - 929.0
2/27 10:50am 191 4 G 10 51° 100% - - 51° 51.6° 42.3° - - 928.0
2/27 10:40am 179 3 G 7 51° 100% - - 51° 51.2° 42.3° - - 928.0
2/27 10:30am 176 2 G 6 51° 100% - - 51° 51° 42.3° - - 928.0
2/27 10:20am 188 3 G 7 50° 100% - - 50° 50.9° 42.3° - - 927.0
2/27 10:10am 247 3 G 4 49° 100% - - 49° 49.6° 42.3° - - 927.0
2/27 10:00am 290 2 G 4 48° 100% - - 48° 48.8° 42.3° - - 926.0
2/27 9:50am 313 1 G 3 48° 100% - - 48° 48.1° 42.3° - - 926.0
2/27 9:40am 331 3 G 5 47° 100% - - 47° 47.3° 42.3° - - 926.0
2/27 9:30am 336 4 G 6 46° 100% - - 46° 45.9° 42.3° - - 925.0
2/27 9:20am 341 4 G 6 45° 100% - - 45° 45.8° 42.3° - - 925.0
2/27 9:10am 349 3 G 8 45° 100% - - 45° 45.5° 42.3° - - 925.0
2/27 9:00am 348 4 G 8 45° 100% - - 45° 45.1° 42.3° - - 925.0
2/27 8:50am 2 5 G 8 45° 100% - - 45° 45° 42.3° - - 925.0
2/27 8:40am 360 4 G 9 45° 100% - - 45° 45° 42.3° - - 925.0
2/27 8:30am 356 4 G 9 45° 100% - - 45° 44.9° 42.3° - - 925.0
2/27 8:20am 338 5 G 7 45° 100% - - 45° 44.8° 42.3° - - 925.0
2/27 8:10am 320 5 G 8 44° 100% - - 44° 44.7° 42.3° - - 925.0
2/27 8:00am 337 6 G 8 44° 100% - - 44° 44.7° 42.3° - - 924.0
2/27 7:50am 338 5 G 8 44° 100% - - 44° 44.7° 42.3° - - 924.0
2/27 7:40am 341 7 G 9 44° 100% - - 44° 44.7° 42.3° - - 924.0
2/27 7:30am 342 6 G 8 44° 100% - - 44° 44.7° 42.3° - - 924.0
2/27 7:20am 334 6 G 8 44° 100% - - 44° 44.7° 42.3° - - 924.0
2/27 7:10am 334 5 G 7 44° 100% - - 44° 44.7° 42.3° - - 924.0
2/27 7:00am 340 5 G 7 44° 100% - - 44° 44.7° 42.3° - - 924.0
2/27 6:50am 343 5 G 8 43° 100% - - 43° 44.7° 42.3° - - 924.0
2/27 6:40am 341 6 G 10 43° 100% - - 43° 44.7° 42.3° - - 924.0
2/27 6:30am 333 6 G 10 43° 100% - - 43° 44.7° 42.3° - - 924.0
2/27 6:20am 339 6 G 9 43° 100% - - 43° 44.7° 42.3° - - 924.0
2/27 6:10am 342 7 G 11 43° 100% - - 43° 44.7° 42.3° - - 923.0
2/27 6:00am 334 8 G 11 43° 100% - - 43° 44.7° 42.3° - - 923.0
2/27 5:50am 336 7 G 10 43° 100% - - 43° 44.7° 42.3° - - 923.0
2/27 5:40am 324 7 G 10 43° 100% - - 43° 44.7° 42.3° - - 923.0
2/27 5:30am 318 6 G 9 43° 100% - - 43° 44.7° 42.3° - - 923.0
2/27 5:20am 319 8 G 11 43° 100% - - 43° 44.7° 42.3° - - 923.0
2/27 5:10am 325 7 G 11 43° 100% - - 43° 44.7° 42.3° - - 923.0
2/27 5:00am 326 9 G 13 43° 100% - - 43° 44.7° 42.3° - - 923.0
2/27 4:50am 329 9 G 12 43° 100% - - 43° 44.7° 42.3° - - 923.0
2/27 4:40am 326 9 G 12 43° 100% - - 43° 44.7° 42.3° - - 923.0
2/27 4:30am 340 8 G 13 43° 100% - - 43° 44.7° 42.3° - - 923.0
2/27 4:20am 331 8 G 14 43° 100% - - 43° 44.7° 42.3° - - 923.0
2/27 4:10am 318 8 G 13 43° 100% - - 43° 44.7° 42.3° - - 923.0
2/27 4:00am 319 7 G 9 43° 100% - - 43° 44.7° 42.3° - - 923.0
2/27 3:50am 317 7 G 10 43° 100% - - 43° 44.7° 42.3° - - 923.0
2/27 3:40am 323 8 G 12 43° 100% - - 43° 44.7° 42.3° - - 923.0
2/27 3:30am 322 8 G 11 43° 100% - - 43° 44.7° 42.3° - - 923.0
2/27 3:20am 328 8 G 12 43° 100% - - 43° 44.7° 42.3° - - 923.0
2/27 3:10am 322 8 G 11 43° 100% - - 43° 44.7° 42.3° - - 922.0
2/27 3:00am 316 7 G 10 43° 100% - - 43° 44.7° 42.3° - - 922.0
2/27 2:50am 321 6 G 8 43° 100% - - 43° 44.7° 42.3° - - 922.0
2/27 2:40am 310 6 G 9 43° 100% - - 43° 44.7° 42.3° - - 922.0
2/27 2:30am 298 5 G 9 43° 100% - - 43° 44.7° 42.5° - - 922.0
2/27 2:20am 340 5 G 8 43° 100% - - 43° 44.7° 42.5° - - 922.0
2/27 2:10am 359 3 G 5 43° 100% - - 43° 44.7° 42.5° - - 922.0
2/27 2:00am 347 3 G 6 43° 100% - - 43° 44.7° 42.5° - - 922.0
2/27 1:50am 346 4 G 7 43° 100% - - 43° 44.7° 42.5° - - 922.0
2/27 1:40am 338 3 G 5 43° 100% - - 43° 44.7° 42.5° - - 922.0
2/27 1:30am 341 4 G 7 43° 100% - - 43° 44.7° 42.5° - - 922.0
2/27 1:20am 357 5 G 8 43° 100% - - 43° 44.7° 42.5° - - 922.0
2/27 1:10am 332 4 G 8 43° 100% - - 43° 44.7° 42.5° - - 922.0
2/27 1:00am 333 3 G 5 44° 100% - - 44° 44.7° 42.9° - - 919.0
2/27 12:50am 306 3 G 5 44° 100% - - 44° 44.7° 43.2° - - 916.0
2/27 12:40am 39 2 G 4 44° 100% - - 44° 44.7° 43.7° - - 919.0
2/27 12:30am 32 1 G 3 44° 100% - - 44° 44.2° 43.7° - - 922.0
2/27 12:20am 129 1 G 2 44° 100% - - 44° 44.2° 43.7° - - 922.0
2/27 12:10am 80 1 G 2 44° 100% - - 44° 44.2° 43.7° - - 923.0
2/27 12:00am 114 2 G 3 44° 100% - - 44° 53.2° 43.7° - - 923.0
2/26 11:50pm 210 1 G 4 44° 100% - - 44° 53.2° 43.9° - - 923.0
2/26 11:40pm 136 3 G 5 45° 100% - - 45° 53.2° 43.9° - - 923.0
2/26 11:30pm 157 3 G 6 45° 100% - - 45° 53.2° 43.9° - - 923.0
2/26 11:20pm 155 3 G 5 45° 100% - - 45° 53.2° 43.9° - - 923.0
2/26 11:10pm 144 3 G 5 45° 100% - - 45° 53.2° 43.9° - - 923.0
2/26 11:00pm 171 1 G 3 45° 100% - - 45° 53.2° 43.9° - - 923.0
2/26 10:50pm 153 2 G 5 45° 100% - - 45° 53.2° 43.9° - - 923.0
2/26 10:40pm 158 1 G 3 45° 100% - - 45° 53.2° 43.9° - - 923.0
2/26 10:30pm 165 1 G 3 45° 100% - - 45° 53.2° 43.9° - - 923.0
2/26 10:20pm 143 1 G 3 45° 100% - - 45° 53.2° 43.9° - - 923.0
2/26 10:10pm 173 2 G 4 45° 100% - - 45° 53.2° 43.9° - - 923.0
2/26 10:00pm 176 2 G 4 45° 100% - - 45° 53.2° 43.9° - - 923.0
2/26 9:50pm 173 2 G 5 45° 100% - - 45° 53.2° 43.9° - - 923.0
2/26 9:40pm 181 2 G 5 45° 100% - - 45° 53.2° 43.9° - - 923.0
2/26 9:30pm 187 2 G 5 45° 100% - - 45° 53.2° 43.9° - - 923.0
2/26 9:20pm 168 2 G 4 45° 100% - - 45° 53.2° 43.9° - - 924.0
2/26 9:10pm 137 2 G 4 45° 100% - - 45° 53.2° 43.9° - - 924.0
2/26 9:00pm 188 3 G 6 46° 100% - - 46° 53.2° 43.9° - - 924.0
2/26 8:50pm 200 4 G 7 46° 100% - - 46° 53.2° 43.9° - - 924.0
2/26 8:40pm 210 6 G 11 46° 100% - - 46° 53.2° 43.9° - - 924.0
2/26 8:30pm 180 3 G 8 46° 100% - - 46° 53.2° 43.9° - - 924.0
2/26 8:20pm 207 6 G 10 46° 100% - - 46° 53.2° 43.9° - - 924.0
2/26 8:10pm 198 5 G 9 46° 100% - - 46° 53.2° 43.9° - - 924.0
2/26 8:00pm 200 5 G 9 46° 100% - - 46° 53.2° 43.9° - - 924.0
2/26 7:50pm 193 4 G 6 46° 100% - - 46° 53.2° 43.9° - - 924.0
2/26 7:40pm 197 4 G 7 46° 100% - - 46° 53.2° 43.9° - - 924.0
2/26 7:30pm 194 3 G 6 46° 100% - - 46° 53.2° 43.9° - - 924.0
2/26 7:20pm 199 5 G 9 46° 100% - - 46° 53.2° 43.9° - - 924.0
2/26 7:10pm 207 6 G 9 46° 100% - - 46° 53.2° 43.9° - - 924.0
2/26 7:00pm 203 5 G 8 47° 100% - - 47° 53.2° 43.9° - - 924.0
2/26 6:50pm 204 6 G 12 47° 100% - - 47° 53.2° 43.9° - - 924.0
2/26 6:40pm 215 6 G 12 47° 100% - - 47° 53.2° 43.9° - - 924.0
2/26 6:30pm 219 8 G 13 47° 100% - - 47° 53.2° 43.9° - - 925.0
2/26 6:20pm 207 6 G 12 48° 100% - - 48° 53.2° 43.9° - - 925.0
2/26 6:10pm 212 9 G 16 48° 100% - - 48° 53.2° 43.9° - - 925.0
2/26 6:00pm 213 11 G 18 48° 100% - - 48° 53.2° 43.9° - - 925.0
2/26 5:50pm 204 10 G 17 48° 100% - - 48° 53.2° 43.9° - - 925.0
2/26 5:40pm 206 10 G 16 48° 100% - - 48° 53.2° 43.9° - - 925.0
2/26 5:30pm 197 8 G 14 48° 100% - - 48° 53.2° 43.9° - - 925.0
2/26 5:20pm 202 8 G 16 48° 100% - - 48° 53.2° 43.9° - - 925.0
2/26 5:10pm 212 11 G 19 49° 100% - - 49° 53.2° 43.9° - - 925.0
2/26 5:00pm 211 12 G 19 49° 100% - - 49° 53.2° 43.9° - - 925.0
2/26 4:50pm 215 11 G 19 49° 100% - - 49° 53.2° 43.9° - - 925.0